createdAt,value
2022-10-23T00:02:04.249Z,101249.22
2022-10-23T00:04:33.470Z,101246.81
2022-10-23T00:07:02.619Z,101240.03
2022-10-23T00:09:31.740Z,101252.84
2022-10-23T00:12:02.201Z,101245.81
2022-10-23T00:14:31.279Z,101242.31
2022-10-23T00:17:00.251Z,101245.19
2022-10-23T00:19:29.623Z,101247.88
2022-10-23T00:21:58.527Z,101247.81
2022-10-23T00:24:27.666Z,101259.56
2022-10-23T00:26:56.625Z,101251.00
2022-10-23T00:29:28.370Z,101265.06
2022-10-23T00:31:59.876Z,101260.94
2022-10-23T00:34:29.058Z,101269.00
2022-10-23T00:36:58.154Z,101264.59
2022-10-23T00:39:27.242Z,101277.59
2022-10-23T00:41:56.161Z,101278.84
2022-10-23T00:45:17.787Z,101279.59
2022-10-23T00:47:46.988Z,101290.38
2022-10-23T00:50:16.806Z,101287.16
2022-10-23T00:52:50.851Z,101285.84
2022-10-23T00:55:23.941Z,101291.38
2022-10-23T00:57:54.436Z,101297.63
2022-10-23T01:00:28.455Z,101303.22
2022-10-23T01:02:59.576Z,101309.75
2022-10-23T01:05:40.670Z,101299.56
2022-10-23T01:08:22.624Z,101309.97
2022-10-23T01:11:00.389Z,101307.78
2022-10-23T01:13:42.077Z,101301.66
2022-10-23T01:16:20.006Z,101309.63
2022-10-23T01:19:00.601Z,101306.25
2022-10-23T01:21:49.822Z,101312.75
2022-10-23T01:24:43.927Z,101310.66
2022-10-23T01:27:27.015Z,101306.25
2022-10-23T01:30:09.360Z,101316.41
2022-10-23T01:32:48.855Z,101313.44
2022-10-23T01:35:24.334Z,101319.91
2022-10-23T01:38:02.602Z,101310.63
2022-10-23T01:40:36.786Z,101313.41
2022-10-23T01:43:14.311Z,101316.84
2022-10-23T01:45:49.188Z,101321.84
2022-10-23T01:48:25.147Z,101340.63
2022-10-23T01:50:59.442Z,101337.41
2022-10-23T01:53:32.301Z,101333.16
2022-10-23T01:56:04.695Z,101324.91
2022-10-23T01:58:38.386Z,101334.34
2022-10-23T02:01:09.285Z,101330.53
2022-10-23T02:03:44.191Z,101335.97
2022-10-23T02:06:13.678Z,101334.31
2022-10-23T02:08:43.040Z,101330.00
2022-10-23T02:11:16.252Z,101332.88
2022-10-23T02:13:54.010Z,101338.19
2022-10-23T02:16:35.430Z,101336.88
2022-10-23T02:19:19.316Z,101333.91
2022-10-23T02:21:56.572Z,101331.44
2022-10-23T02:24:35.010Z,101334.59
2022-10-23T02:27:12.884Z,101325.88
2022-10-23T02:29:49.975Z,101329.28
2022-10-23T02:32:21.973Z,101329.06
2022-10-23T02:34:51.332Z,101325.66
2022-10-23T02:39:55.838Z,101333.59
2022-10-23T02:42:35.133Z,101334.91
2022-10-23T02:45:13.562Z,101325.44
2022-10-23T02:47:56.638Z,101328.13
2022-10-23T02:50:39.187Z,101330.63
2022-10-23T02:53:17.761Z,101324.16
2022-10-23T02:56:03.399Z,101319.28
2022-10-23T02:58:41.673Z,101319.50
2022-10-23T03:01:15.448Z,101318.97
2022-10-23T03:03:54.427Z,101329.19
2022-10-23T03:06:25.681Z,101322.13
2022-10-23T03:08:59.713Z,101321.91
2022-10-23T03:11:28.724Z,101322.88
2022-10-23T03:13:58.220Z,101328.78
2022-10-23T03:16:29.001Z,101327.59
2022-10-23T03:18:58.445Z,101322.75
2022-10-23T03:21:27.467Z,101334.34
2022-10-23T03:23:56.482Z,101333.81
2022-10-23T03:26:25.640Z,101331.56
2022-10-23T03:28:54.599Z,101330.06
2022-10-23T03:31:23.606Z,101324.91
2022-10-23T03:33:54.104Z,101333.59
2022-10-23T03:36:23.607Z,101334.59
2022-10-23T03:38:52.706Z,101336.84
2022-10-23T03:41:21.861Z,101333.06
2022-10-23T03:43:50.786Z,101334.16
2022-10-23T03:46:19.883Z,101337.03
2022-10-23T03:48:48.893Z,101327.59
2022-10-23T03:51:19.605Z,101335.31
2022-10-23T03:53:48.461Z,101335.88
2022-10-23T03:56:17.741Z,101333.72
2022-10-23T03:58:46.642Z,101331.03
2022-10-23T04:01:15.877Z,101336.06
2022-10-23T04:03:44.795Z,101337.03
2022-10-23T04:06:13.705Z,101339.53
2022-10-23T04:08:45.671Z,101338.97
2022-10-23T04:11:14.872Z,101340.59
2022-10-23T04:13:44.353Z,101346.69
2022-10-23T04:16:13.251Z,101345.91
2022-10-23T04:18:43.018Z,101343.56
2022-10-23T04:21:13.560Z,101348.50
2022-10-23T04:23:44.509Z,101352.09
2022-10-23T04:26:13.808Z,101343.28
2022-10-23T04:28:42.873Z,101359.38
2022-10-23T04:31:11.989Z,101358.19
2022-10-23T04:33:41.221Z,101360.34
2022-10-23T04:36:11.399Z,101348.66
2022-10-23T04:38:40.385Z,101350.81
2022-10-23T04:41:11.295Z,101359.78
2022-10-23T04:43:40.307Z,101356.84
2022-10-23T04:46:09.907Z,101362.16
2022-10-23T04:48:38.822Z,101357.34
2022-10-23T04:51:09.441Z,101364.97
2022-10-23T04:53:39.251Z,101356.44
2022-10-23T04:56:14.346Z,101353.72
2022-10-23T04:58:44.155Z,101360.97
2022-10-23T05:01:13.732Z,101360.44
2022-10-23T05:03:43.042Z,101367.16
2022-10-23T05:06:12.174Z,101367.75
2022-10-23T05:08:41.214Z,101362.41
2022-10-23T05:11:13.703Z,101364.31
2022-10-23T05:13:42.929Z,101367.47
2022-10-23T05:16:14.661Z,101373.53
2022-10-23T05:18:49.086Z,101372.78
2022-10-23T05:21:26.195Z,101375.19
2022-10-23T05:23:56.288Z,101368.44
2022-10-23T05:26:26.754Z,101352.78
2022-10-23T05:28:55.861Z,101363.50
2022-10-23T05:31:27.071Z,101370.56
2022-10-23T05:33:58.361Z,101368.09
2022-10-23T05:36:28.711Z,101357.47
2022-10-23T05:38:58.685Z,101356.94
2022-10-23T05:41:29.176Z,101362.19
2022-10-23T05:43:58.432Z,101359.69
2022-10-23T05:46:28.192Z,101357.25
2022-10-23T05:48:57.400Z,101353.59
2022-10-23T05:51:26.316Z,101360.47
2022-10-23T05:53:56.946Z,101353.19
2022-10-23T05:56:27.424Z,101355.56
2022-10-23T05:58:56.702Z,101361.13
2022-10-23T06:01:25.843Z,101358.03
2022-10-23T06:03:54.972Z,101356.97
2022-10-23T06:06:24.105Z,101360.09
2022-10-23T06:08:53.154Z,101363.31
2022-10-23T06:11:22.095Z,101364.41
2022-10-23T06:13:52.655Z,101374.16
2022-10-23T06:16:24.906Z,101377.97
2022-10-23T06:18:54.015Z,101370.44
2022-10-23T06:21:23.498Z,101373.75
2022-10-23T06:23:52.882Z,101378.69
2022-10-23T06:26:21.937Z,101377.94
2022-10-23T06:28:52.276Z,101384.59
2022-10-23T06:31:26.935Z,101385.00
2022-10-23T06:33:56.611Z,101391.59
2022-10-23T06:36:26.313Z,101390.84
2022-10-23T06:38:56.599Z,101383.31
2022-10-23T06:41:25.716Z,101385.25
2022-10-23T06:43:56.193Z,101391.88
2022-10-23T06:46:26.949Z,101388.63
2022-10-23T06:48:56.010Z,101389.53
2022-10-23T06:51:25.225Z,101393.03
2022-10-23T06:53:54.214Z,101392.09
2022-10-23T06:56:25.432Z,101399.34
2022-10-23T06:58:55.782Z,101397.38
2022-10-23T07:01:25.004Z,101402.06
2022-10-23T07:03:54.238Z,101407.22
2022-10-23T07:06:23.262Z,101404.81
2022-10-23T07:08:52.527Z,101407.22
2022-10-23T07:11:21.485Z,101412.38
2022-10-23T07:13:50.470Z,101414.91
2022-10-23T07:16:24.109Z,101420.94
2022-10-23T07:18:59.774Z,101432.97
2022-10-23T07:21:32.287Z,101419.25
2022-10-23T07:24:01.322Z,101417.75
2022-10-23T07:26:30.806Z,101415.81
2022-10-23T07:29:00.059Z,101412.31
2022-10-23T07:31:30.945Z,101426.97
2022-10-23T07:33:59.940Z,101424.59
2022-10-23T07:36:29.006Z,101428.28
2022-10-23T07:38:58.008Z,101432.19
2022-10-23T07:41:27.003Z,101421.38
2022-10-23T07:43:55.984Z,101427.47
2022-10-23T07:46:25.032Z,101421.59
2022-10-23T07:48:55.413Z,101428.50
2022-10-23T07:51:24.428Z,101415.41
2022-10-23T07:53:53.499Z,101421.38
2022-10-23T07:56:30.042Z,101408.88
2022-10-23T07:58:59.348Z,101419.16
2022-10-23T08:01:33.185Z,101419.06
2022-10-23T08:04:04.646Z,101416.13
2022-10-23T08:06:36.058Z,101418.47
2022-10-23T08:09:06.722Z,101409.63
2022-10-23T08:11:36.647Z,101414.69
2022-10-23T08:14:08.458Z,101409.41
2022-10-23T08:16:40.832Z,101401.53
2022-10-23T08:19:13.272Z,101412.28
2022-10-23T08:21:42.442Z,101409.81
2022-10-23T08:24:15.389Z,101413.19
2022-10-23T08:26:44.710Z,101398.19
2022-10-23T08:29:13.648Z,101401.06
2022-10-23T08:31:43.029Z,101409.41
2022-10-23T08:34:13.998Z,101401.94
2022-10-23T08:36:43.192Z,101400.34
2022-10-23T08:39:12.126Z,101405.69
2022-10-23T08:41:45.291Z,101412.09
2022-10-23T08:44:24.787Z,101410.84
2022-10-23T08:47:05.171Z,101412.31
2022-10-23T08:49:49.009Z,101409.63
2022-10-23T08:52:26.838Z,101420.91
2022-10-23T08:55:08.936Z,101415.28
2022-10-23T08:57:47.048Z,101411.38
2022-10-23T09:00:19.987Z,101413.94
2022-10-23T09:02:52.340Z,101408.53
2022-10-23T09:05:33.294Z,101407.78
2022-10-23T09:08:25.084Z,101408.84
2022-10-23T09:11:06.226Z,101403.28
2022-10-23T09:14:29.032Z,101404.09
2022-10-23T09:17:18.154Z,101409.50
2022-10-23T09:19:48.140Z,101393.34
2022-10-23T09:22:18.791Z,101372.22
2022-10-23T09:24:52.984Z,101366.31
2022-10-23T09:27:23.252Z,101357.69
2022-10-23T09:29:54.609Z,101350.66
2022-10-23T09:32:35.687Z,101325.06
2022-10-23T09:35:06.908Z,101312.47
2022-10-23T09:37:46.669Z,101295.28
2022-10-23T09:40:24.314Z,101276.72
2022-10-23T09:42:58.796Z,101251.50
2022-10-23T09:45:33.316Z,101256.09
2022-10-23T09:48:15.939Z,101248.38
2022-10-23T09:50:54.180Z,101239.91
2022-10-23T09:53:36.492Z,101251.50
2022-10-23T09:56:12.041Z,101255.13
2022-10-23T09:58:58.197Z,101241.59
2022-10-23T10:01:30.832Z,101229.03
2022-10-23T10:04:00.513Z,101229.00
2022-10-23T10:06:33.280Z,101229.78
2022-10-23T10:09:09.861Z,101228.00
2022-10-23T10:11:47.633Z,101224.28
2022-10-23T10:14:59.858Z,101228.47
2022-10-23T10:17:46.202Z,101224.00
2022-10-23T10:20:46.247Z,101228.78
2022-10-23T10:23:28.884Z,101225.09
2022-10-23T10:26:17.199Z,101226.81
2022-10-23T10:29:24.320Z,101216.63
2022-10-23T10:32:07.775Z,101207.75
2022-10-23T10:34:52.788Z,101202.53
2022-10-23T10:37:34.677Z,101194.88
2022-10-23T10:40:18.952Z,101185.16
2022-10-23T10:43:14.778Z,101186.31
2022-10-23T10:45:49.693Z,101181.03
2022-10-23T10:48:58.230Z,101176.06
2022-10-23T10:51:44.597Z,101178.91
2022-10-23T10:54:32.871Z,101171.16
2022-10-23T10:57:06.887Z,101161.94
2022-10-23T10:59:43.842Z,101170.63
2022-10-23T11:02:29.159Z,101159.47
2022-10-23T11:05:16.773Z,101151.44
2022-10-23T11:07:56.530Z,101146.50
2022-10-23T11:10:25.718Z,101140.41
2022-10-23T11:12:54.846Z,101137.28
2022-10-23T11:15:30.681Z,101138.22
2022-10-23T11:18:06.734Z,101142.44
2022-10-23T11:21:00.677Z,101127.91
2022-10-23T11:24:13.577Z,101122.31
2022-10-23T11:27:13.829Z,101109.84
2022-10-23T11:30:12.413Z,101107.38
2022-10-23T11:33:29.804Z,101093.00
2022-10-23T11:36:15.249Z,101085.50
2022-10-23T11:38:47.805Z,101066.22
2022-10-23T11:41:26.626Z,101070.13
2022-10-23T11:44:01.787Z,101058.56
2022-10-23T11:46:36.753Z,101062.31
2022-10-23T11:49:22.532Z,101055.53
2022-10-23T11:52:03.147Z,101048.00
2022-10-23T11:54:33.078Z,101036.31
2022-10-23T11:57:15.066Z,101036.25
2022-10-23T11:59:56.898Z,101018.28
2022-10-23T12:02:38.881Z,101032.63
2022-10-23T12:05:30.683Z,101023.97
2022-10-23T12:08:03.900Z,101019.16
2022-10-23T12:10:36.443Z,101016.81
2022-10-23T12:13:27.679Z,101022.22
2022-10-23T12:15:59.983Z,101024.59
2022-10-23T12:18:30.586Z,101020.69
2022-10-23T12:21:03.533Z,101012.69
2022-10-23T12:24:02.959Z,101007.91
2022-10-23T12:26:54.635Z,101004.06
2022-10-23T12:29:42.589Z,101000.09
2022-10-23T12:32:32.451Z,101000.81
2022-10-23T12:35:30.805Z,100997.94
2022-10-23T12:38:16.720Z,100994.69
2022-10-23T12:40:48.017Z,100991.63
2022-10-23T12:43:31.029Z,100996.03
2022-10-23T12:46:20.046Z,100989.66
2022-10-23T12:48:54.168Z,100989.06
2022-10-23T12:51:27.747Z,100981.69
2022-10-23T12:53:58.644Z,100979.31
2022-10-23T12:56:31.736Z,100979.00
2022-10-23T12:59:05.479Z,100978.72
2022-10-23T13:01:39.435Z,100965.63
2022-10-23T13:04:29.668Z,100963.31
2022-10-23T13:07:00.955Z,100959.19
2022-10-23T13:09:35.310Z,100961.66
2022-10-23T13:12:08.682Z,100952.06
2022-10-23T13:14:43.770Z,100942.38
2022-10-23T13:17:14.298Z,100934.22
2022-10-23T13:19:43.233Z,100921.09
2022-10-23T13:22:22.544Z,100914.47
2022-10-23T13:24:55.131Z,100921.47
2022-10-23T13:27:33.323Z,100923.31
2022-10-23T13:30:03.992Z,100925.22
2022-10-23T13:32:35.101Z,100935.16
2022-10-23T13:35:20.374Z,100926.41
2022-10-23T13:37:51.435Z,100916.47
2022-10-23T13:40:28.293Z,100927.66
2022-10-23T13:42:59.036Z,100922.94
2022-10-23T13:45:29.075Z,100926.28
2022-10-23T13:47:58.035Z,100920.84
2022-10-23T13:50:27.227Z,100921.53
2022-10-23T13:52:56.177Z,100918.63
2022-10-23T13:55:28.460Z,100922.03
2022-10-23T13:57:57.706Z,100919.81
2022-10-23T14:00:26.790Z,100914.69
2022-10-23T14:02:56.135Z,100907.06
2022-10-23T14:05:25.433Z,100909.44
2022-10-23T14:07:57.762Z,100911.19
2022-10-23T14:10:28.464Z,100899.84
2022-10-23T14:12:57.375Z,100899.84
2022-10-23T14:15:26.266Z,100898.13
2022-10-23T14:17:59.024Z,100898.13
2022-10-23T14:20:29.657Z,100888.25
2022-10-23T14:22:58.923Z,100883.59
2022-10-23T14:25:29.477Z,100880.88
2022-10-23T14:27:58.628Z,100878.19
2022-10-23T14:30:27.635Z,100883.44
2022-10-23T14:32:56.782Z,100881.97
2022-10-23T14:35:26.348Z,100880.22
2022-10-23T14:37:55.267Z,100867.69
2022-10-23T14:40:24.394Z,100872.09
2022-10-23T14:42:54.930Z,100870.03
2022-10-23T14:45:23.860Z,100858.13
2022-10-23T14:47:52.933Z,100858.06
2022-10-23T14:50:22.035Z,100857.00
2022-10-23T14:52:51.179Z,100850.25
2022-10-23T14:55:20.623Z,100847.69
2022-10-23T14:57:49.766Z,100853.22
2022-10-23T15:00:20.810Z,100848.06
2022-10-23T15:02:49.903Z,100842.84
2022-10-23T15:05:19.122Z,100830.09
2022-10-23T15:07:48.113Z,100835.34
2022-10-23T15:12:51.146Z,100822.16
2022-10-23T15:15:22.671Z,100835.44
2022-10-23T15:17:51.634Z,100842.84
2022-10-23T15:20:20.605Z,100845.69
2022-10-23T15:22:49.601Z,100852.19
2022-10-23T15:25:19.435Z,100850.63
2022-10-23T15:27:49.095Z,100849.72
2022-10-23T15:30:22.072Z,100844.06
2022-10-23T15:32:51.706Z,100849.94
2022-10-23T15:35:21.197Z,100847.25
2022-10-23T15:37:50.225Z,100842.31
2022-10-23T15:40:20.139Z,100829.53
2022-10-23T15:42:53.178Z,100829.69
2022-10-23T15:45:26.625Z,100815.78
2022-10-23T15:47:58.990Z,100816.50
2022-10-23T15:50:28.358Z,100826.03
2022-10-23T15:52:57.500Z,100832.91
2022-10-23T15:55:26.862Z,100832.81
2022-10-23T15:57:59.264Z,100832.50
2022-10-23T16:00:36.982Z,100820.44
2022-10-23T16:03:06.735Z,100815.63
2022-10-23T16:05:35.754Z,100819.91
2022-10-23T16:08:05.969Z,100817.41
2022-10-23T16:10:39.817Z,100824.38
2022-10-23T16:13:09.314Z,100823.13
2022-10-23T16:15:40.636Z,100806.78
2022-10-23T16:18:09.850Z,100816.31
2022-10-23T16:20:42.095Z,100817.75
2022-10-23T16:23:11.156Z,100810.91
2022-10-23T16:25:41.357Z,100815.50
2022-10-23T16:28:10.562Z,100809.81
2022-10-23T16:30:45.552Z,100803.25
2022-10-23T16:33:15.107Z,100798.72
2022-10-23T16:35:47.181Z,100817.06
2022-10-23T16:38:16.199Z,100811.53
2022-10-23T16:40:52.714Z,100807.56
2022-10-23T16:43:21.956Z,100807.84
2022-10-23T16:46:04.065Z,100810.09
2022-10-23T16:48:34.566Z,100805.88
2022-10-23T16:51:07.854Z,100819.06
2022-10-23T16:53:37.219Z,100818.94
2022-10-23T16:56:07.969Z,100802.47
2022-10-23T16:58:37.760Z,100811.66
2022-10-23T17:01:13.669Z,100805.69
2022-10-23T17:03:46.546Z,100804.13
2022-10-23T17:06:18.791Z,100808.66
2022-10-23T17:08:48.081Z,100811.50
2022-10-23T17:11:21.395Z,100810.09
2022-10-23T17:13:57.153Z,100807.78
2022-10-23T17:16:34.797Z,100814.75
2022-10-23T17:19:16.064Z,100801.16
2022-10-23T17:21:56.175Z,100785.22
2022-10-23T17:24:25.885Z,100780.56
2022-10-23T17:26:56.349Z,100780.81
2022-10-23T17:29:25.327Z,100781.00
2022-10-23T17:31:55.849Z,100771.91
2022-10-23T17:34:25.555Z,100768.75
2022-10-23T17:36:56.815Z,100757.13
2022-10-23T17:39:28.980Z,100748.47
2022-10-23T17:42:02.016Z,100762.97
2022-10-23T17:44:31.097Z,100764.94
2022-10-23T17:47:01.434Z,100751.31
2022-10-23T17:49:30.851Z,100739.69
2022-10-23T17:52:00.019Z,100743.38
2022-10-23T17:54:29.681Z,100731.88
2022-10-23T17:56:58.917Z,100722.63
2022-10-23T17:59:27.944Z,100721.22
2022-10-23T18:01:59.085Z,100721.50
2022-10-23T18:04:29.777Z,100713.28
2022-10-23T18:06:58.687Z,100713.56
2022-10-23T18:09:28.006Z,100698.22
2022-10-23T18:11:57.399Z,100696.81
2022-10-23T18:14:29.369Z,100703.34
2022-10-23T18:16:58.581Z,100696.41
2022-10-23T18:19:29.959Z,100698.66
2022-10-23T18:21:59.149Z,100704.38
2022-10-23T18:24:31.274Z,100693.94
2022-10-23T18:27:00.802Z,100696.09
2022-10-23T18:29:29.895Z,100697.09
2022-10-23T18:31:58.862Z,100702.75
2022-10-23T18:34:29.293Z,100688.44
2022-10-23T18:36:58.288Z,100668.13
2022-10-23T18:39:28.887Z,100649.06
2022-10-23T18:42:00.063Z,100637.19
2022-10-23T18:44:29.865Z,100637.16
2022-10-23T18:47:00.922Z,100644.00
2022-10-23T18:49:31.544Z,100631.81
2022-10-23T18:52:00.837Z,100622.59
2022-10-23T18:54:30.034Z,100635.09
2022-10-23T18:56:59.236Z,100637.78
2022-10-23T18:59:28.328Z,100653.97
2022-10-23T19:01:57.565Z,100653.97
2022-10-23T19:04:26.987Z,100650.84
2022-10-23T19:06:57.720Z,100647.72
2022-10-23T19:09:26.811Z,100648.00
2022-10-23T19:11:55.832Z,100666.88
2022-10-23T19:14:27.978Z,100670.41
2022-10-23T19:17:04.493Z,100678.34
2022-10-23T19:19:42.140Z,100680.91
2022-10-23T19:22:16.009Z,100687.03
2022-10-23T19:24:51.268Z,100680.63
2022-10-23T19:27:22.813Z,100677.78
2022-10-23T19:29:54.983Z,100685.19
2022-10-23T19:32:23.774Z,100689.84
2022-10-23T19:34:53.036Z,100694.13
2022-10-23T19:37:23.874Z,100680.63
2022-10-23T19:39:53.103Z,100670.97
2022-10-23T19:42:22.209Z,100673.66
2022-10-23T19:44:51.899Z,100670.16
2022-10-23T19:47:21.115Z,100681.19
2022-10-23T19:49:52.060Z,100675.94
2022-10-23T19:52:23.085Z,100667.88
2022-10-23T19:54:52.360Z,100652.97
2022-10-23T19:57:22.868Z,100635.94
2022-10-23T19:59:53.430Z,100625.88
2022-10-23T20:02:22.907Z,100615.66
2022-10-23T20:04:52.287Z,100605.47
2022-10-23T20:07:23.302Z,100600.94
2022-10-23T20:09:52.373Z,100603.03
2022-10-23T20:12:21.510Z,100615.13
2022-10-23T20:14:54.110Z,100618.81
2022-10-23T20:17:23.979Z,100615.41
2022-10-23T20:19:53.913Z,100612.56
2022-10-23T20:22:24.899Z,100615.97
2022-10-23T20:24:54.025Z,100630.41
2022-10-23T20:27:22.896Z,100627.13
2022-10-23T20:29:52.270Z,100628.41
2022-10-23T20:32:21.528Z,100634.66
2022-10-23T20:34:52.891Z,100627.00
2022-10-23T20:37:23.498Z,100607.34
2022-10-23T20:39:52.877Z,100598.84
2022-10-23T20:42:22.287Z,100599.38
2022-10-23T20:44:51.383Z,100589.19
2022-10-23T20:47:20.520Z,100581.97
2022-10-23T20:49:49.484Z,100577.28
2022-10-23T20:52:18.520Z,100575.19
2022-10-23T20:54:49.337Z,100577.56
2022-10-23T20:57:20.638Z,100582.97
2022-10-23T20:59:50.409Z,100579.00
2022-10-23T21:02:19.517Z,100576.41
2022-10-23T21:04:50.589Z,100575.75
2022-10-23T21:07:21.050Z,100565.34
2022-10-23T21:09:51.431Z,100563.78
2022-10-23T21:12:20.489Z,100558.53
2022-10-23T21:14:49.484Z,100559.69
2022-10-23T21:17:18.574Z,100566.50
2022-10-23T21:19:47.690Z,100560.72
2022-10-23T21:22:16.804Z,100562.44
2022-10-23T21:24:45.855Z,100566.97
2022-10-23T21:27:16.551Z,100567.09
2022-10-23T21:29:45.625Z,100570.38
2022-10-23T21:32:14.543Z,100578.56
2022-10-23T21:34:44.137Z,100566.59
2022-10-23T21:37:14.443Z,100575.69
2022-10-23T21:39:45.624Z,100577.69
2022-10-23T21:42:16.766Z,100551.66
2022-10-23T21:44:45.884Z,100567.28
2022-10-23T21:47:14.917Z,100569.31
2022-10-23T21:49:44.212Z,100565.50
2022-10-23T21:52:15.114Z,100558.25
2022-10-23T21:54:46.647Z,100555.25
2022-10-23T21:57:17.388Z,100567.88
2022-10-23T21:59:46.568Z,100555.22
2022-10-23T22:02:15.887Z,100550.28
2022-10-23T22:04:45.062Z,100538.72
2022-10-23T22:07:15.168Z,100545.34
2022-10-23T22:09:47.070Z,100540.22
2022-10-23T22:12:17.546Z,100542.06
2022-10-23T22:14:46.775Z,100536.84
2022-10-23T22:17:15.799Z,100531.97
2022-10-23T22:19:45.162Z,100530.38
2022-10-23T22:22:14.183Z,100519.56
2022-10-23T22:24:43.505Z,100511.41
2022-10-23T22:27:12.658Z,100513.34
2022-10-23T22:29:43.186Z,100498.13
2022-10-23T22:32:12.275Z,100481.09
2022-10-23T22:34:52.210Z,100483.66
2022-10-23T22:37:21.896Z,100478.78
2022-10-23T22:39:53.062Z,100474.06
2022-10-23T22:42:22.392Z,100466.66
2022-10-23T22:44:52.703Z,100476.47
2022-10-23T22:47:21.925Z,100465.97
2022-10-23T22:49:50.895Z,100455.78
2022-10-23T22:52:19.851Z,100457.81
2022-10-23T22:54:49.955Z,100454.31
2022-10-23T22:57:18.984Z,100452.25
2022-10-23T22:59:48.132Z,100435.91
2022-10-23T23:02:18.618Z,100428.97
2022-10-23T23:04:47.515Z,100434.66
2022-10-23T23:07:16.596Z,100429.13
2022-10-23T23:09:46.697Z,100440.38
2022-10-23T23:12:16.648Z,100437.84
2022-10-23T23:14:45.570Z,100442.69
2022-10-23T23:17:14.632Z,100449.63
2022-10-23T23:19:45.142Z,100454.03
2022-10-23T23:22:14.196Z,100461.75
2022-10-23T23:24:43.105Z,100487.88
2022-10-23T23:27:12.115Z,100506.19
2022-10-23T23:29:41.079Z,100514.28
2022-10-23T23:32:11.648Z,100507.06
2022-10-23T23:34:40.747Z,100514.03
2022-10-23T23:37:11.215Z,100508.06
2022-10-23T23:39:40.374Z,100504.84
2022-10-23T23:42:11.836Z,100503.38
2022-10-23T23:44:50.264Z,100495.38
2022-10-23T23:47:29.855Z,100488.38
2022-10-23T23:49:59.011Z,100488.75
2022-10-23T23:52:29.415Z,100479.09
2022-10-23T23:54:58.347Z,100470.47
2022-10-23T23:57:27.830Z,100461.03
2022-10-23T23:59:56.920Z,100447.41
